Time;durP1;ratioP1;P1;durP2;ratioP2;P2;SDS_P1;SDS_P2;PMS_P1;PMS_P2;Temp;Humidity;BMP_temperature;BMP_pressure;BME280_temperature;BME280_humidity;BME280_pressure;Samples;Min_cycle;Max_cycle;Signal;HPM_P1;HPM_P2
2022/06/08 00:00:01;;;;;;;2.40;2.20;;;;;;;;;;5085260;27;20212;-63
2022/06/08 00:02:32;;;;;;;2.30;2.10;;;;;;;;;;5097628;27;20704;-63
2022/06/08 00:04:59;;;;;;;2.87;2.10;;;;;;;;;;5067517;28;20830;-64
2022/06/08 00:07:27;;;;;;;2.50;2.30;;;;;;;;;;5085152;28;20200;-64
2022/06/08 00:09:54;;;;;;;2.50;2.20;;;;;;;;;;5084194;28;20223;-64
2022/06/08 00:12:22;;;;;;;2.63;2.43;;;;;;;;;;5101454;27;20224;-64
2022/06/08 00:14:49;;;;;;;3.43;2.10;;;;;;;;;;5090696;28;20208;-64
2022/06/08 00:17:18;;;;;;;3.00;2.27;;;;;;;;;;5090440;28;20281;-64
2022/06/08 00:19:45;;;;;;;2.10;1.97;;;;;;;;;;5088058;28;20212;-64
2022/06/08 00:22:12;;;;;;;2.37;2.20;;;;;;;;;;5087295;28;20322;-64
2022/06/08 00:24:40;;;;;;;2.10;2.00;;;;;;;;;;5090754;28;20227;-64
2022/06/08 00:27:08;;;;;;;2.43;2.23;;;;;;;;;;5085747;28;20209;-64
2022/06/08 00:29:36;;;;;;;2.53;2.10;;;;;;;;;;5083630;28;20204;-63
2022/06/08 00:32:04;;;;;;;2.80;2.13;;;;;;;;;;5091851;28;20220;-63
2022/06/08 00:34:31;;;;;;;2.83;2.17;;;;;;;;;;5106856;27;20200;-63
2022/06/08 00:36:58;;;;;;;3.23;2.40;;;;;;;;;;5085910;28;20212;-64
2022/06/08 00:39:26;;;;;;;2.27;2.03;;;;;;;;;;5101915;27;20212;-65
2022/06/08 00:41:55;;;;;;;2.47;2.03;;;;;;;;;;5084788;28;20229;-65
2022/06/08 00:44:25;;;;;;;2.33;2.13;;;;;;;;;;5083767;28;20212;-65
2022/06/08 00:46:53;;;;;;;2.27;2.07;;;;;;;;;;5087360;28;20249;-65
2022/06/08 00:49:26;;;;;;;2.50;2.30;;;;;;;;;;5084852;28;20206;-65
2022/06/08 00:51:54;;;;;;;2.77;2.40;;;;;;;;;;5084669;28;20238;-65
2022/06/08 00:54:27;;;;;;;2.20;2.10;;;;;;;;;;5096805;27;20196;-64
2022/06/08 00:56:59;;;;;;;3.40;2.70;;;;;;;;;;5079354;28;20250;-65
2022/06/08 00:59:29;;;;;;;2.93;2.20;;;;;;;;;;5080081;28;20219;-65
2022/06/08 01:01:57;;;;;;;2.60;2.40;;;;;;;;;;5084846;28;20859;-64
2022/06/08 01:04:24;;;;;;;2.73;2.53;;;;;;;;;;5084439;28;20289;-64
2022/06/08 01:06:56;;;;;;;2.77;2.57;;;;;;;;;;5086072;28;20211;-64
2022/06/08 01:09:29;;;;;;;2.43;2.33;;;;;;;;;;5099941;27;20208;-65
2022/06/08 01:11:58;;;;;;;2.60;2.40;;;;;;;;;;5085930;28;20228;-65
2022/06/08 01:14:27;;;;;;;2.70;2.50;;;;;;;;;;5090461;27;20215;-64
2022/06/08 01:16:57;;;;;;;2.90;2.70;;;;;;;;;;5082869;28;20212;-65
2022/06/08 01:19:24;;;;;;;2.63;2.50;;;;;;;;;;5086045;27;20208;-64
2022/06/08 01:21:53;;;;;;;2.80;2.50;;;;;;;;;;5084888;28;20243;-65
2022/06/08 01:24:21;;;;;;;3.07;2.70;;;;;;;;;;5105682;27;20199;-65
2022/06/08 01:27:00;;;;;;;3.03;2.73;;;;;;;;;;5082360;27;20208;-65
2022/06/08 01:29:35;;;;;;;2.60;2.40;;;;;;;;;;5086062;28;20211;-65
2022/06/08 01:32:17;;;;;;;4.40;2.33;;;;;;;;;;5085943;28;20629;-65
2022/06/08 01:35:07;;;;;;;2.73;2.33;;;;;;;;;;5084232;28;20265;-65
2022/06/08 01:37:46;;;;;;;2.33;2.23;;;;;;;;;;5099626;27;20685;-65
2022/06/08 01:40:32;;;;;;;3.00;2.70;;;;;;;;;;5089493;27;20204;-65
2022/06/08 01:43:09;;;;;;;2.87;2.67;;;;;;;;;;5085796;27;20204;-65
2022/06/08 01:45:37;;;;;;;2.57;2.40;;;;;;;;;;5099500;27;20227;-65
2022/06/08 01:48:23;;;;;;;2.77;2.50;;;;;;;;;;5085907;28;20549;-65
2022/06/08 01:50:58;;;;;;;2.30;2.20;;;;;;;;;;5087088;28;20227;-65
2022/06/08 01:53:36;;;;;;;4.10;2.70;;;;;;;;;;5096650;28;20252;-65
2022/06/08 01:56:13;;;;;;;3.10;2.43;;;;;;;;;;5087322;28;20208;-65
2022/06/08 01:58:40;;;;;;;3.70;2.50;;;;;;;;;;5080608;28;20200;-65
2022/06/08 02:01:19;;;;;;;2.70;2.50;;;;;;;;;;5086862;27;20225;-65
2022/06/08 02:04:06;;;;;;;2.93;2.73;;;;;;;;;;5086037;28;20211;-65
2022/06/08 02:06:41;;;;;;;3.00;2.80;;;;;;;;;;5108457;27;20235;-65
2022/06/08 02:09:13;;;;;;;2.97;2.70;;;;;;;;;;5080773;27;20200;-65
2022/06/08 02:11:46;;;;;;;3.23;2.33;;;;;;;;;;5085031;28;20289;-65
2022/06/08 02:14:16;;;;;;;3.00;2.70;;;;;;;;;;5091894;27;20211;-65
2022/06/08 02:16:54;;;;;;;4.17;2.57;;;;;;;;;;5092363;28;20205;-64
2022/06/08 02:19:28;;;;;;;3.40;2.57;;;;;;;;;;5086597;28;20621;-65
2022/06/08 02:22:04;;;;;;;6.50;2.60;;;;;;;;;;5084340;28;20280;-65
2022/06/08 02:24:39;;;;;;;2.87;2.50;;;;;;;;;;5103135;27;20211;-64
2022/06/08 02:27:29;;;;;;;4.07;2.60;;;;;;;;;;5086334;28;20219;-64
2022/06/08 02:30:04;;;;;;;3.17;2.70;;;;;;;;;;5102134;28;20242;-64
2022/06/08 02:35:25;;;;;;;3.20;2.83;;;;;;;;;;5103728;28;20225;-63
2022/06/08 02:37:55;;;;;;;3.23;2.87;;;;;;;;;;5088352;28;20245;-63
2022/06/08 02:40:25;;;;;;;3.27;2.60;;;;;;;;;;5103193;28;20677;-64
2022/06/08 02:42:57;;;;;;;3.90;2.80;;;;;;;;;;5085369;28;20308;-64
2022/06/08 02:45:26;;;;;;;2.77;2.40;;;;;;;;;;5079715;28;20228;-64
2022/06/08 02:47:58;;;;;;;4.93;2.60;;;;;;;;;;5087125;28;20205;-64
2022/06/08 02:50:26;;;;;;;3.03;2.50;;;;;;;;;;5084628;28;20253;-64
2022/06/08 02:53:05;;;;;;;2.57;2.37;;;;;;;;;;5087093;27;20216;-63
2022/06/08 02:55:38;;;;;;;4.10;2.60;;;;;;;;;;5096284;27;20269;-63
2022/06/08 02:58:08;;;;;;;4.37;2.40;;;;;;;;;;5087336;28;20215;-63
2022/06/08 03:00:42;;;;;;;4.90;2.50;;;;;;;;;;5102426;28;20244;-63
2022/06/08 03:03:21;;;;;;;3.47;2.60;;;;;;;;;;5081866;28;20208;-64
2022/06/08 03:05:55;;;;;;;2.40;2.20;;;;;;;;;;5097690;28;20698;-63
2022/06/08 03:08:25;;;;;;;3.43;2.27;;;;;;;;;;5108252;28;20208;-63
2022/06/08 03:10:53;;;;;;;3.80;2.47;;;;;;;;;;5081040;28;20635;-64
2022/06/08 03:13:23;;;;;;;3.53;2.13;;;;;;;;;;5104099;28;20192;-63
2022/06/08 03:15:55;;;;;;;3.73;2.20;;;;;;;;;;5086419;28;20223;-64
2022/06/08 03:18:23;;;;;;;3.70;2.57;;;;;;;;;;5104578;28;20215;-65
2022/06/08 03:20:51;;;;;;;2.83;2.20;;;;;;;;;;5101230;27;20226;-65
2022/06/08 03:23:19;;;;;;;2.97;2.17;;;;;;;;;;5089613;28;20269;-65
2022/06/08 03:25:47;;;;;;;2.20;1.83;;;;;;;;;;5098367;28;21880;-65
2022/06/08 03:28:15;;;;;;;1.97;1.83;;;;;;;;;;5102763;28;20216;-65
2022/06/08 03:30:43;;;;;;;2.60;2.40;;;;;;;;;;5082750;28;20262;-65
2022/06/08 03:33:10;;;;;;;2.53;2.30;;;;;;;;;;5085191;28;20230;-65
2022/06/08 03:35:38;;;;;;;2.10;2.00;;;;;;;;;;5075859;28;20209;-65
2022/06/08 03:38:07;;;;;;;2.60;2.40;;;;;;;;;;5088575;28;20261;-65
2022/06/08 03:40:34;;;;;;;3.60;2.30;;;;;;;;;;5097172;28;22996;-65
2022/06/08 03:43:02;;;;;;;2.80;2.13;;;;;;;;;;5078651;28;20212;-65
2022/06/08 03:45:49;;;;;;;4.03;2.40;;;;;;;;;;5094636;28;20921;-63
2022/06/08 03:48:17;;;;;;;3.07;2.00;;;;;;;;;;5085030;28;20199;-65
2022/06/08 03:50:46;;;;;;;5.67;2.40;;;;;;;;;;5087780;28;20254;-65
2022/06/08 03:53:19;;;;;;;3.70;2.00;;;;;;;;;;5106749;28;20200;-64
2022/06/08 03:55:48;;;;;;;3.77;2.60;;;;;;;;;;5082986;28;20224;-63
2022/06/08 03:58:16;;;;;;;4.07;2.73;;;;;;;;;;5081895;28;20661;-64
2022/06/08 04:00:43;;;;;;;3.57;2.10;;;;;;;;;;5079048;28;20697;-63
2022/06/08 04:03:11;;;;;;;3.93;2.17;;;;;;;;;;5081827;28;20262;-64
2022/06/08 04:05:39;;;;;;;5.43;2.20;;;;;;;;;;5084371;28;20235;-64
2022/06/08 04:08:06;;;;;;;6.60;2.07;;;;;;;;;;5090992;28;20200;-64
2022/06/08 04:10:34;;;;;;;2.87;1.93;;;;;;;;;;5089323;28;20264;-64
2022/06/08 04:13:01;;;;;;;3.33;2.00;;;;;;;;;;5086624;28;20200;-64
2022/06/08 04:15:44;;;;;;;3.67;2.20;;;;;;;;;;5078534;28;20208;-63
2022/06/08 04:18:14;;;;;;;3.53;2.03;;;;;;;;;;5085430;28;20215;-63
2022/06/08 04:20:45;;;;;;;2.70;2.07;;;;;;;;;;5086058;28;20212;-64
2022/06/08 04:23:16;;;;;;;3.27;2.37;;;;;;;;;;5096560;27;20224;-64
2022/06/08 04:25:45;;;;;;;2.43;2.00;;;;;;;;;;5099164;28;20232;-64
2022/06/08 04:28:13;;;;;;;4.63;2.20;;;;;;;;;;5074744;28;20287;-63
2022/06/08 04:30:41;;;;;;;7.33;2.40;;;;;;;;;;5094539;27;20196;-64
2022/06/08 04:33:08;;;;;;;4.07;2.20;;;;;;;;;;5085013;28;20208;-63
2022/06/08 04:35:35;;;;;;;3.87;1.90;;;;;;;;;;5077162;28;20261;-63
2022/06/08 04:38:03;;;;;;;5.20;2.03;;;;;;;;;;5074489;28;20606;-64
2022/06/08 04:40:31;;;;;;;3.67;2.00;;;;;;;;;;5100130;27;20734;-63
2022/06/08 04:42:58;;;;;;;9.60;2.40;;;;;;;;;;5078968;28;20216;-64
2022/06/08 04:45:26;;;;;;;2.17;1.90;;;;;;;;;;5076991;28;20224;-64
2022/06/08 04:47:53;;;;;;;4.67;2.20;;;;;;;;;;5095082;27;21446;-64
2022/06/08 04:50:21;;;;;;;2.67;2.13;;;;;;;;;;5089677;28;20208;-63
2022/06/08 04:52:48;;;;;;;2.57;2.00;;;;;;;;;;5075025;28;20228;-63
2022/06/08 04:55:16;;;;;;;6.30;2.73;;;;;;;;;;5082497;28;20204;-63
2022/06/08 04:57:44;;;;;;;3.23;1.93;;;;;;;;;;5085678;28;21156;-63
2022/06/08 05:00:14;;;;;;;2.57;1.80;;;;;;;;;;5083864;27;20249;-63
2022/06/08 05:02:44;;;;;;;4.07;2.10;;;;;;;;;;5069324;28;20269;-63
2022/06/08 05:05:13;;;;;;;5.30;2.50;;;;;;;;;;5072995;28;20268;-65
2022/06/08 05:07:40;;;;;;;2.97;1.80;;;;;;;;;;5072827;28;20211;-64
2022/06/08 05:10:08;;;;;;;2.97;2.20;;;;;;;;;;5082287;28;20201;-63
2022/06/08 05:12:36;;;;;;;2.73;2.07;;;;;;;;;;5088287;27;20216;-63
2022/06/08 05:15:08;;;;;;;2.93;2.20;;;;;;;;;;5060122;28;20196;-63
2022/06/08 05:17:35;;;;;;;3.93;2.00;;;;;;;;;;5090608;28;20212;-63
2022/06/08 05:20:04;;;;;;;2.30;1.77;;;;;;;;;;5100540;28;20257;-65
2022/06/08 05:22:32;;;;;;;5.10;1.70;;;;;;;;;;5074933;27;20243;-63
2022/06/08 05:25:00;;;;;;;4.15;1.73;;;;;;;;;;5095176;28;20208;-64
2022/06/08 05:27:28;;;;;;;2.42;1.30;;;;;;;;;;5069234;28;20233;-64
2022/06/08 05:29:56;;;;;;;3.10;1.15;;;;;;;;;;5094925;27;20261;-64
2022/06/08 05:32:24;;;;;;;2.00;1.20;;;;;;;;;;5074717;28;20224;-64
2022/06/08 05:34:51;;;;;;;4.75;1.45;;;;;;;;;;5082345;28;20200;-64
2022/06/08 05:37:18;;;;;;;1.67;1.10;;;;;;;;;;5078800;28;20225;-64
2022/06/08 05:39:46;;;;;;;1.33;0.82;;;;;;;;;;5103835;27;20200;-64
2022/06/08 05:42:13;;;;;;;2.10;1.10;;;;;;;;;;5105660;27;20220;-64
2022/06/08 05:44:41;;;;;;;4.78;1.30;;;;;;;;;;5095802;27;20200;-65
2022/06/08 05:47:08;;;;;;;3.33;1.30;;;;;;;;;;5095991;28;20235;-65
2022/06/08 05:49:35;;;;;;;5.45;1.58;;;;;;;;;;5069499;28;20930;-63
2022/06/08 05:52:06;;;;;;;6.72;1.40;;;;;;;;;;5097638;27;20288;-63
2022/06/08 05:54:34;;;;;;;2.75;1.27;;;;;;;;;;5096727;27;20196;-63
2022/06/08 05:57:02;;;;;;;3.95;1.35;;;;;;;;;;5084851;28;20227;-64
2022/06/08 05:59:29;;;;;;;5.15;1.58;;;;;;;;;;5078794;28;20207;-63
2022/06/08 06:01:56;;;;;;;2.67;1.38;;;;;;;;;;5097106;27;20646;-63
2022/06/08 06:04:24;;;;;;;3.80;1.52;;;;;;;;;;5080068;28;20208;-63
2022/06/08 06:06:52;;;;;;;6.00;2.00;;;;;;;;;;5081055;27;20243;-63
2022/06/08 06:09:20;;;;;;;3.78;1.60;;;;;;;;;;5062848;28;20208;-63
2022/06/08 06:11:47;;;;;;;6.68;1.85;;;;;;;;;;5086679;27;20753;-63
2022/06/08 06:14:14;;;;;;;6.53;1.70;;;;;;;;;;5066526;28;20199;-63
2022/06/08 06:16:42;;;;;;;4.78;1.40;;;;;;;;;;5069631;28;20295;-63
2022/06/08 06:19:09;;;;;;;5.80;1.52;;;;;;;;;;5070344;27;20208;-63
2022/06/08 06:21:37;;;;;;;3.97;1.58;;;;;;;;;;5068662;28;20232;-63
2022/06/08 06:24:04;;;;;;;5.90;1.80;;;;;;;;;;5074650;28;20204;-63
2022/06/08 06:26:32;;;;;;;5.07;1.77;;;;;;;;;;5076057;28;20235;-63
2022/06/08 06:28:59;;;;;;;1.77;1.58;;;;;;;;;;5094723;28;20674;-64
2022/06/08 06:31:29;;;;;;;4.90;1.88;;;;;;;;;;5082043;28;20227;-64
2022/06/08 06:33:57;;;;;;;3.08;1.60;;;;;;;;;;5101557;28;20200;-64
2022/06/08 06:36:26;;;;;;;1.88;1.50;;;;;;;;;;5081241;28;20226;-64
2022/06/08 06:38:53;;;;;;;4.43;1.92;;;;;;;;;;5082348;28;20247;-62
2022/06/08 06:41:21;;;;;;;2.95;1.63;;;;;;;;;;5081007;28;20265;-64
2022/06/08 06:43:50;;;;;;;2.03;1.40;;;;;;;;;;5081278;28;20216;-63
2022/06/08 06:46:17;;;;;;;5.72;2.03;;;;;;;;;;5080534;28;20805;-63
2022/06/08 06:48:44;;;;;;;4.88;2.03;;;;;;;;;;5082878;28;20287;-64
2022/06/08 06:51:12;;;;;;;5.53;1.83;;;;;;;;;;5082124;28;20231;-65
2022/06/08 06:53:40;;;;;;;3.65;1.65;;;;;;;;;;5084613;28;20723;-64
2022/06/08 06:56:08;;;;;;;3.28;1.55;;;;;;;;;;5078017;28;20212;-63
2022/06/08 06:58:36;;;;;;;3.88;1.67;;;;;;;;;;5074775;28;20208;-64
2022/06/08 07:01:04;;;;;;;2.72;1.88;;;;;;;;;;5074777;28;20277;-63
2022/06/08 07:03:32;;;;;;;3.13;1.60;;;;;;;;;;5083558;28;21157;-63
2022/06/08 07:06:00;;;;;;;2.97;1.70;;;;;;;;;;5073564;28;20277;-64
2022/06/08 07:08:27;;;;;;;3.00;1.80;;;;;;;;;;5084564;28;20203;-64
2022/06/08 07:13:41;;;;;;;2.92;1.73;;;;;;;;;;5083729;27;20211;-64
2022/06/08 07:16:08;;;;;;;5.40;2.05;;;;;;;;;;5087571;28;20219;-64
2022/06/08 07:18:36;;;;;;;2.40;1.63;;;;;;;;;;5078883;28;20208;-64
2022/06/08 07:21:04;;;;;;;3.22;1.65;;;;;;;;;;5082351;28;20227;-64
2022/06/08 07:23:31;;;;;;;5.05;1.70;;;;;;;;;;5074718;28;20945;-64
2022/06/08 07:25:59;;;;;;;6.72;1.85;;;;;;;;;;5083128;28;20239;-65
2022/06/08 07:28:27;;;;;;;4.57;1.63;;;;;;;;;;5087154;28;20242;-64
2022/06/08 07:30:54;;;;;;;2.88;1.60;;;;;;;;;;5081620;28;20614;-64
2022/06/08 07:33:22;;;;;;;3.10;1.67;;;;;;;;;;5086074;28;20210;-64
2022/06/08 07:35:49;;;;;;;3.00;1.60;;;;;;;;;;5066314;28;20205;-64
2022/06/08 07:38:20;;;;;;;2.47;1.52;;;;;;;;;;5063613;28;20281;-65
2022/06/08 07:40:48;;;;;;;4.18;1.65;;;;;;;;;;5067513;28;20200;-64
2022/06/08 07:43:16;;;;;;;4.78;1.45;;;;;;;;;;5074226;28;20216;-64
2022/06/08 07:45:43;;;;;;;4.10;1.70;;;;;;;;;;5072142;28;20289;-64
2022/06/08 07:50:57;;;;;;;2.60;1.42;;;;;;;;;;5089612;28;20232;-65
2022/06/08 07:53:24;;;;;;;3.95;1.40;;;;;;;;;;5096442;27;20272;-64
2022/06/08 07:55:52;;;;;;;1.85;1.40;;;;;;;;;;5105833;28;20803;-63
2022/06/08 07:58:19;;;;;;;2.53;1.42;;;;;;;;;;5081521;28;20216;-64
2022/06/08 08:00:49;;;;;;;4.35;1.70;;;;;;;;;;5081524;28;20561;-64
2022/06/08 08:03:18;;;;;;;3.42;1.30;;;;;;;;;;5098187;27;20201;-64
2022/06/08 08:05:46;;;;;;;2.72;1.30;;;;;;;;;;5083886;28;20222;-64
2022/06/08 08:08:15;;;;;;;3.13;1.25;;;;;;;;;;5087238;28;20269;-64
2022/06/08 08:10:42;;;;;;;2.17;1.40;;;;;;;;;;5081488;28;20213;-64
2022/06/08 08:13:10;;;;;;;3.22;1.45;;;;;;;;;;5102260;27;20514;-65
2022/06/08 08:15:38;;;;;;;1.90;1.15;;;;;;;;;;5079757;28;20325;-64
2022/06/08 08:18:06;;;;;;;2.30;1.40;;;;;;;;;;5074982;27;20212;-64
2022/06/08 08:20:34;;;;;;;2.97;1.20;;;;;;;;;;5077827;28;20223;-65
2022/06/08 08:23:01;;;;;;;3.22;1.38;;;;;;;;;;5073431;27;20216;-65
2022/06/08 08:25:29;;;;;;;3.97;1.20;;;;;;;;;;5080331;27;20294;-65
2022/06/08 08:27:57;;;;;;;2.22;1.40;;;;;;;;;;5081123;28;20731;-65
2022/06/08 08:30:27;;;;;;;2.25;1.23;;;;;;;;;;5100577;27;20665;-65
2022/06/08 08:32:54;;;;;;;2.50;1.10;;;;;;;;;;5083009;28;20236;-65
2022/06/08 08:35:24;;;;;;;1.90;1.10;;;;;;;;;;5074188;27;20215;-65
2022/06/08 08:37:56;;;;;;;5.80;1.75;;;;;;;;;;5098176;28;20200;-65
2022/06/08 08:40:36;;;;;;;4.50;1.45;;;;;;;;;;5075086;28;20286;-65
2022/06/08 08:43:04;;;;;;;2.38;1.10;;;;;;;;;;5077977;28;20204;-64
2022/06/08 08:45:35;;;;;;;4.55;1.20;;;;;;;;;;5072292;28;20200;-64
2022/06/08 08:48:13;;;;;;;1.88;1.10;;;;;;;;;;5069279;28;20232;-64
2022/06/08 08:50:59;;;;;;;7.25;1.17;;;;;;;;;;5086382;28;20212;-64
2022/06/08 08:53:36;;;;;;;3.63;1.20;;;;;;;;;;5073819;28;20207;-64
2022/06/08 08:56:26;;;;;;;2.20;0.95;;;;;;;;;;5083346;28;20200;-64
2022/06/08 08:58:54;;;;;;;2.75;1.30;;;;;;;;;;5099556;27;20295;-64
2022/06/08 09:01:26;;;;;;;2.40;1.17;;;;;;;;;;5081146;28;20288;-65
2022/06/08 09:03:56;;;;;;;2.40;1.27;;;;;;;;;;5075954;28;20204;-65
2022/06/08 09:06:31;;;;;;;3.33;1.10;;;;;;;;;;5095006;27;20204;-64
2022/06/08 09:09:02;;;;;;;3.80;1.65;;;;;;;;;;5086939;28;20200;-64
2022/06/08 09:11:33;;;;;;;3.17;1.13;;;;;;;;;;5098371;28;20262;-65
2022/06/08 09:14:24;;;;;;;4.38;1.45;;;;;;;;;;5085553;28;20200;-64
2022/06/08 09:16:54;;;;;;;1.70;1.00;;;;;;;;;;5080396;28;20273;-64
2022/06/08 09:19:24;;;;;;;1.60;1.00;;;;;;;;;;5079878;28;21708;-64
2022/06/08 09:22:13;;;;;;;1.65;1.00;;;;;;;;;;5082348;28;20228;-64
2022/06/08 09:24:49;;;;;;;4.13;1.10;;;;;;;;;;5074416;28;20204;-64
2022/06/08 09:27:29;;;;;;;0.77;0.70;;;;;;;;;;5080367;28;20268;-64
2022/06/08 09:30:18;;;;;;;1.65;0.77;;;;;;;;;;5085969;28;20207;-64
2022/06/08 09:32:45;;;;;;;2.63;1.10;;;;;;;;;;5086314;28;20239;-64
2022/06/08 09:35:16;;;;;;;1.27;1.10;;;;;;;;;;5083860;28;20233;-63
2022/06/08 09:37:45;;;;;;;4.13;1.00;;;;;;;;;;5097581;27;20254;-64
2022/06/08 09:43:19;;;;;;;1.08;0.70;;;;;;;;;;5102153;28;20596;-64
2022/06/08 09:45:53;;;;;;;0.95;0.73;;;;;;;;;;5082967;28;20641;-64
2022/06/08 09:51:28;;;;;;;1.38;0.80;;;;;;;;;;5098119;28;20228;-66
2022/06/08 09:54:14;;;;;;;0.93;0.90;;;;;;;;;;5084187;28;20223;-65
2022/06/08 09:56:51;;;;;;;1.80;0.68;;;;;;;;;;5103501;28;20208;-65
2022/06/08 09:59:21;;;;;;;1.00;0.90;;;;;;;;;;5102082;28;20199;-65
2022/06/08 10:01:58;;;;;;;1.58;0.70;;;;;;;;;;5082852;28;20224;-65
2022/06/08 10:04:28;;;;;;;1.88;0.70;;;;;;;;;;5101043;27;20196;-65
2022/06/08 10:07:16;;;;;;;2.45;0.80;;;;;;;;;;5082702;28;20973;-65
2022/06/08 10:09:49;;;;;;;0.60;0.60;;;;;;;;;;5082399;28;20196;-65
2022/06/08 10:12:25;;;;;;;2.05;0.70;;;;;;;;;;5090895;27;20574;-65
2022/06/08 10:14:56;;;;;;;2.58;0.80;;;;;;;;;;5075503;28;20204;-65
2022/06/08 10:17:39;;;;;;;4.85;0.75;;;;;;;;;;5088744;27;20409;-66
2022/06/08 10:20:12;;;;;;;0.93;0.57;;;;;;;;;;5079921;28;20208;-65
2022/06/08 10:22:42;;;;;;;3.67;0.80;;;;;;;;;;5085973;28;20228;-65
2022/06/08 10:25:16;;;;;;;0.90;0.70;;;;;;;;;;5080744;28;20261;-64
2022/06/08 10:27:51;;;;;;;1.42;0.68;;;;;;;;;;5073435;28;20227;-65
2022/06/08 10:30:28;;;;;;;1.73;0.68;;;;;;;;;;5078424;28;20219;-66
2022/06/08 10:33:07;;;;;;;1.20;0.60;;;;;;;;;;5072561;28;20220;-66
2022/06/08 10:35:41;;;;;;;1.50;0.70;;;;;;;;;;5073702;28;20720;-65
2022/06/08 10:38:16;;;;;;;1.63;0.60;;;;;;;;;;5059163;28;20223;-65
2022/06/08 10:40:50;;;;;;;2.20;0.90;;;;;;;;;;5064301;28;20208;-63
2022/06/08 10:43:19;;;;;;;1.63;0.65;;;;;;;;;;5078427;28;20304;-64
2022/06/08 10:45:53;;;;;;;0.80;0.80;;;;;;;;;;5083836;28;20200;-66
2022/06/08 10:48:25;;;;;;;0.88;0.63;;;;;;;;;;5073660;28;20919;-65
2022/06/08 10:51:22;;;;;;;2.08;0.90;;;;;;;;;;5094756;28;20631;-66
2022/06/08 10:56:57;;;;;;;0.85;0.52;;;;;;;;;;5094509;28;20260;-65
2022/06/08 10:59:26;;;;;;;1.30;0.57;;;;;;;;;;5082686;28;20208;-65
2022/06/08 11:02:03;;;;;;;1.40;0.55;;;;;;;;;;5074831;28;20212;-65
2022/06/08 11:04:31;;;;;;;1.15;0.65;;;;;;;;;;5077504;28;20196;-65
2022/06/08 11:06:58;;;;;;;0.77;0.70;;;;;;;;;;5060822;28;20211;-65
2022/06/08 11:09:35;;;;;;;1.65;0.63;;;;;;;;;;5058346;28;21622;-65
2022/06/08 11:12:11;;;;;;;1.40;0.85;;;;;;;;;;5058145;28;20232;-65
2022/06/08 11:14:45;;;;;;;2.00;0.70;;;;;;;;;;5065775;28;20208;-65
2022/06/08 11:17:15;;;;;;;0.73;0.55;;;;;;;;;;5066520;28;20203;-65
2022/06/08 11:19:43;;;;;;;0.63;0.63;;;;;;;;;;5074710;28;20208;-65
2022/06/08 11:22:22;;;;;;;1.80;0.80;;;;;;;;;;5094281;28;20224;-65
2022/06/08 11:24:52;;;;;;;1.00;0.68;;;;;;;;;;5096530;28;20204;-65
2022/06/08 11:27:31;;;;;;;1.00;0.82;;;;;;;;;;5083019;27;20257;-65
2022/06/08 11:30:01;;;;;;;1.50;0.80;;;;;;;;;;5087300;27;20196;-65
2022/06/08 11:32:35;;;;;;;1.15;0.65;;;;;;;;;;5086289;27;20628;-65
2022/06/08 11:35:21;;;;;;;2.58;0.90;;;;;;;;;;5086011;28;20616;-65
2022/06/08 11:38:07;;;;;;;1.40;0.75;;;;;;;;;;5108892;27;20215;-65
2022/06/08 11:40:35;;;;;;;1.63;0.90;;;;;;;;;;5082049;27;20791;-64
2022/06/08 11:43:18;;;;;;;3.22;1.08;;;;;;;;;;5091516;27;20239;-65
2022/06/08 11:46:04;;;;;;;2.10;0.98;;;;;;;;;;5096117;27;20208;-64
2022/06/08 11:48:45;;;;;;;3.50;1.13;;;;;;;;;;5103698;27;20638;-65
2022/06/08 11:51:28;;;;;;;1.40;0.80;;;;;;;;;;5088534;27;20294;-65
2022/06/08 11:53:58;;;;;;;1.73;1.00;;;;;;;;;;5089690;27;20225;-65
2022/06/08 11:56:27;;;;;;;2.28;0.98;;;;;;;;;;5089393;28;20219;-64
2022/06/08 11:58:58;;;;;;;2.10;0.80;;;;;;;;;;5089969;27;20212;-64
2022/06/08 12:01:38;;;;;;;0.85;0.85;;;;;;;;;;5084527;28;20224;-65
2022/06/08 12:04:07;;;;;;;2.80;0.90;;;;;;;;;;5103622;27;20206;-65
2022/06/08 12:06:37;;;;;;;1.50;0.98;;;;;;;;;;5106474;27;20211;-64
2022/06/08 12:09:04;;;;;;;1.73;0.80;;;;;;;;;;5106396;27;20227;-64
2022/06/08 12:11:33;;;;;;;1.13;0.73;;;;;;;;;;5109133;27;20822;-64
2022/06/08 12:14:03;;;;;;;1.52;1.00;;;;;;;;;;5099690;27;20719;-64
2022/06/08 12:16:51;;;;;;;2.17;1.10;;;;;;;;;;5103162;27;20207;-64
2022/06/08 12:19:22;;;;;;;2.22;1.20;;;;;;;;;;5123909;27;20209;-64
2022/06/08 12:22:06;;;;;;;1.70;0.90;;;;;;;;;;5105164;27;20633;-64
2022/06/08 12:24:33;;;;;;;1.17;1.00;;;;;;;;;;5100168;27;20244;-64
2022/06/08 12:27:21;;;;;;;4.60;1.10;;;;;;;;;;5102774;27;20211;-65
2022/06/08 12:29:53;;;;;;;1.27;0.82;;;;;;;;;;5098107;27;20215;-64
2022/06/08 12:32:23;;;;;;;1.05;0.80;;;;;;;;;;5095957;27;20223;-64
2022/06/08 12:34:53;;;;;;;2.53;0.90;;;;;;;;;;5094813;27;20223;-64
2022/06/08 12:37:26;;;;;;;2.97;1.10;;;;;;;;;;5098387;27;20276;-64
2022/06/08 12:39:55;;;;;;;2.15;0.95;;;;;;;;;;5097368;27;20238;-64
2022/06/08 12:42:33;;;;;;;2.92;1.30;;;;;;;;;;5106465;27;20220;-64
2022/06/08 12:45:02;;;;;;;1.75;0.98;;;;;;;;;;5106672;27;20214;-64
2022/06/08 12:47:39;;;;;;;2.25;0.95;;;;;;;;;;5102309;27;20201;-64
2022/06/08 12:50:12;;;;;;;1.02;0.77;;;;;;;;;;5100638;27;20259;-64
2022/06/08 12:52:40;;;;;;;2.42;1.10;;;;;;;;;;5123610;27;20805;-64
2022/06/08 12:55:15;;;;;;;1.17;0.80;;;;;;;;;;5108059;27;20203;-65
2022/06/08 12:57:44;;;;;;;0.88;0.80;;;;;;;;;;5102849;27;20639;-64
2022/06/08 13:00:13;;;;;;;2.53;1.10;;;;;;;;;;5099980;27;20672;-64
2022/06/08 13:02:41;;;;;;;2.33;0.90;;;;;;;;;;5102816;27;20219;-64
2022/06/08 13:05:17;;;;;;;2.92;1.15;;;;;;;;;;5090137;27;20611;-64
2022/06/08 13:07:44;;;;;;;2.85;0.90;;;;;;;;;;5096854;27;20221;-64
2022/06/08 13:10:13;;;;;;;2.85;1.00;;;;;;;;;;5096888;27;21286;-65
2022/06/08 13:12:46;;;;;;;1.88;0.80;;;;;;;;;;5100837;27;20230;-64
2022/06/08 13:15:18;;;;;;;1.90;0.90;;;;;;;;;;5098054;27;20925;-64
2022/06/08 13:17:46;;;;;;;2.13;1.00;;;;;;;;;;5117856;27;20203;-64
2022/06/08 13:20:25;;;;;;;2.08;0.90;;;;;;;;;;5092976;27;20223;-64
2022/06/08 13:22:52;;;;;;;2.67;0.90;;;;;;;;;;5091195;27;20227;-65
2022/06/08 13:25:32;;;;;;;1.95;1.00;;;;;;;;;;5100934;27;20271;-65
2022/06/08 13:28:00;;;;;;;1.08;0.98;;;;;;;;;;5099766;27;20276;-64
2022/06/08 13:30:29;;;;;;;2.63;1.17;;;;;;;;;;5099107;27;20222;-64
2022/06/08 13:32:57;;;;;;;1.88;1.20;;;;;;;;;;5093701;27;20223;-65
2022/06/08 13:35:25;;;;;;;3.42;1.00;;;;;;;;;;5099368;27;20350;-65
2022/06/08 13:37:54;;;;;;;1.73;1.00;;;;;;;;;;5101395;27;20593;-65
2022/06/08 13:40:23;;;;;;;3.60;1.08;;;;;;;;;;5103677;27;20212;-65
2022/06/08 13:42:51;;;;;;;0.80;0.80;;;;;;;;;;5113167;27;20692;-65
2022/06/08 13:45:20;;;;;;;1.58;0.80;;;;;;;;;;5090830;27;20264;-65
2022/06/08 13:47:53;;;;;;;1.92;1.00;;;;;;;;;;5103466;27;20688;-65
2022/06/08 13:50:33;;;;;;;1.52;0.90;;;;;;;;;;5103660;27;20226;-65
2022/06/08 13:53:01;;;;;;;1.45;0.93;;;;;;;;;;5121259;27;20214;-64
2022/06/08 13:55:33;;;;;;;1.63;1.15;;;;;;;;;;5121926;27;20203;-64
2022/06/08 13:58:03;;;;;;;1.80;1.20;;;;;;;;;;5094519;27;20208;-65
2022/06/08 14:00:33;;;;;;;2.13;1.00;;;;;;;;;;5095587;27;20227;-65
2022/06/08 14:03:05;;;;;;;2.78;0.95;;;;;;;;;;5098997;27;20235;-64
2022/06/08 14:13:55;;;;;;;2.08;1.30;;;;;;;;;;5114352;27;20199;-65
2022/06/08 14:16:23;;;;;;;1.67;1.20;;;;;;;;;;5096205;27;20206;-64
2022/06/08 14:18:52;;;;;;;3.45;1.10;;;;;;;;;;5094116;27;20326;-66
2022/06/08 14:21:19;;;;;;;5.22;1.10;;;;;;;;;;5095845;27;20772;-65
2022/06/08 14:23:48;;;;;;;3.63;1.25;;;;;;;;;;5098133;27;20207;-65
2022/06/08 14:26:20;;;;;;;2.15;1.17;;;;;;;;;;5103260;27;20239;-65
2022/06/08 14:28:54;;;;;;;2.47;1.33;;;;;;;;;;5105607;27;20227;-65
2022/06/08 14:31:33;;;;;;;2.03;1.27;;;;;;;;;;5095585;27;20231;-65
2022/06/08 14:34:02;;;;;;;3.28;1.40;;;;;;;;;;5101004;27;20204;-65
2022/06/08 14:36:30;;;;;;;3.22;1.15;;;;;;;;;;5101141;27;20200;-65
2022/06/08 14:39:20;;;;;;;4.20;1.33;;;;;;;;;;5102654;27;20252;-63
2022/06/08 14:41:48;;;;;;;2.63;1.30;;;;;;;;;;5099456;27;20227;-65
2022/06/08 14:44:19;;;;;;;3.00;1.60;;;;;;;;;;5094828;27;20231;-65
2022/06/08 14:46:55;;;;;;;4.15;1.45;;;;;;;;;;5092893;27;20203;-65
2022/06/08 14:49:25;;;;;;;2.35;1.60;;;;;;;;;;5092492;27;20238;-65
2022/06/08 14:51:55;;;;;;;2.13;1.40;;;;;;;;;;5101659;27;20224;-65
2022/06/08 14:54:23;;;;;;;3.63;1.40;;;;;;;;;;5098484;27;20203;-65
2022/06/08 14:57:02;;;;;;;2.80;1.27;;;;;;;;;;5097504;27;20203;-64
2022/06/08 14:59:30;;;;;;;2.30;1.40;;;;;;;;;;5083585;27;21567;-65
2022/06/08 15:01:58;;;;;;;3.60;1.23;;;;;;;;;;5095867;27;20284;-65
2022/06/08 15:04:28;;;;;;;2.67;1.40;;;;;;;;;;5103441;27;20256;-65
2022/06/08 15:06:56;;;;;;;3.25;1.40;;;;;;;;;;5090861;27;20308;-65
2022/06/08 15:09:25;;;;;;;1.95;1.33;;;;;;;;;;5090293;27;20750;-65
2022/06/08 15:11:59;;;;;;;1.52;1.30;;;;;;;;;;5106537;27;20226;-65
2022/06/08 15:14:29;;;;;;;1.75;1.25;;;;;;;;;;5094300;27;20207;-65
2022/06/08 15:16:57;;;;;;;3.00;1.58;;;;;;;;;;5090240;27;20203;-65
2022/06/08 15:19:27;;;;;;;2.25;1.40;;;;;;;;;;5095995;28;20347;-65
2022/06/08 15:22:02;;;;;;;2.83;1.35;;;;;;;;;;5092465;28;20254;-65
2022/06/08 15:24:31;;;;;;;2.45;1.30;;;;;;;;;;5111977;27;20207;-64
2022/06/08 15:27:01;;;;;;;2.63;1.30;;;;;;;;;;5092926;27;20219;-65
2022/06/08 15:29:29;;;;;;;2.25;1.55;;;;;;;;;;5085077;28;20223;-64
2022/06/08 15:31:57;;;;;;;5.22;1.80;;;;;;;;;;5100409;28;20223;-64